createdAt,value
2023-05-05T00:01:17.022Z,11.13
2023-05-05T00:06:09.015Z,11.18
2023-05-05T00:11:00.998Z,9.27
2023-05-05T00:15:53.912Z,9.15
2023-05-05T00:20:49.036Z,8.38
2023-05-05T00:25:41.012Z,10.10
2023-05-05T00:30:33.721Z,9.18
2023-05-05T00:35:25.639Z,9.68
2023-05-05T00:40:18.878Z,8.80
2023-05-05T00:45:12.681Z,9.80
2023-05-05T00:50:07.489Z,9.43
2023-05-05T00:54:59.834Z,9.20
2023-05-05T00:59:51.748Z,8.10
2023-05-05T01:04:43.754Z,8.50
2023-05-05T01:09:36.623Z,8.93
2023-05-05T01:14:53.264Z,9.10
2023-05-05T01:19:56.769Z,8.80
2023-05-05T01:25:13.354Z,9.00
2023-05-05T01:30:26.893Z,9.05
2023-05-05T01:35:20.565Z,9.85
2023-05-05T01:40:13.812Z,11.23
2023-05-05T01:45:09.554Z,8.73
2023-05-05T01:50:02.557Z,9.60
2023-05-05T01:54:56.055Z,8.80
2023-05-05T01:59:49.296Z,9.00
2023-05-05T02:04:45.137Z,9.15
2023-05-05T02:09:38.746Z,7.97
2023-05-05T02:14:31.016Z,8.98
2023-05-05T02:19:28.756Z,9.40
2023-05-05T02:24:20.785Z,9.47
2023-05-05T02:29:20.089Z,9.07
2023-05-05T02:34:16.429Z,9.23
2023-05-05T02:39:17.937Z,8.82
2023-05-05T02:44:12.823Z,8.95
2023-05-05T02:49:05.236Z,9.02
2023-05-05T02:53:57.617Z,9.20
2023-05-05T02:59:47.744Z,8.73
2023-05-05T03:05:17.494Z,8.88
2023-05-05T03:10:15.348Z,8.38
2023-05-05T03:15:12.672Z,8.75
2023-05-05T03:20:07.279Z,9.02
2023-05-05T03:25:02.234Z,8.60
2023-05-05T03:29:54.151Z,10.02
2023-05-05T03:34:46.922Z,8.32
2023-05-05T03:39:39.487Z,8.07
2023-05-05T03:44:32.677Z,8.45
2023-05-05T03:49:25.081Z,7.65
2023-05-05T03:54:17.821Z,7.25
2023-05-05T03:59:09.715Z,7.07
2023-05-05T04:04:02.407Z,6.60
2023-05-05T04:08:54.424Z,5.97
2023-05-05T04:13:46.470Z,5.65
2023-05-05T04:18:38.813Z,6.53
2023-05-05T04:23:31.098Z,5.38
2023-05-05T04:28:23.102Z,5.00
2023-05-05T04:33:14.995Z,5.85
2023-05-05T04:38:07.262Z,6.07
2023-05-05T04:42:59.612Z,5.38
2023-05-05T04:47:51.624Z,5.35
2023-05-05T04:52:43.594Z,5.60
2023-05-05T04:57:35.904Z,5.55
2023-05-05T05:02:28.255Z,6.32
2023-05-05T05:07:20.238Z,5.88
2023-05-05T05:12:12.173Z,5.15
2023-05-05T05:17:04.463Z,5.72
2023-05-05T05:21:57.546Z,5.88
2023-05-05T05:26:49.630Z,5.35
2023-05-05T05:31:41.965Z,5.13
2023-05-05T05:36:33.967Z,5.18
2023-05-05T05:41:25.829Z,6.03
2023-05-05T05:46:18.461Z,5.38
2023-05-05T05:51:11.731Z,6.68
2023-05-05T05:56:03.875Z,6.47
2023-05-05T06:00:55.827Z,5.28
2023-05-05T06:05:47.959Z,5.40
2023-05-05T06:10:41.310Z,5.88
2023-05-05T06:15:37.366Z,6.22
2023-05-05T06:20:31.081Z,5.60
2023-05-05T06:25:23.136Z,5.90
2023-05-05T06:30:16.528Z,6.03
2023-05-05T06:35:09.242Z,5.80
2023-05-05T06:40:01.056Z,5.70
2023-05-05T06:44:53.114Z,5.90
2023-05-05T06:49:44.985Z,5.97
2023-05-05T06:54:36.840Z,6.20
2023-05-05T06:59:28.628Z,6.15
2023-05-05T07:04:21.593Z,6.85
2023-05-05T07:09:14.718Z,6.72
2023-05-05T07:14:07.518Z,7.25
2023-05-05T07:19:01.010Z,8.98
2023-05-05T07:23:52.787Z,7.57
2023-05-05T07:28:45.108Z,8.73
2023-05-05T07:33:37.239Z,8.13
2023-05-05T07:38:29.056Z,8.05
2023-05-05T07:43:20.957Z,8.60
2023-05-05T07:48:12.814Z,8.27
2023-05-05T07:53:13.844Z,8.90
2023-05-05T07:58:06.794Z,11.15
2023-05-05T08:02:58.624Z,12.07
2023-05-05T08:07:50.564Z,10.15
2023-05-05T08:12:42.590Z,13.05
2023-05-05T08:17:48.985Z,14.48
2023-05-05T08:22:42.497Z,13.77
2023-05-05T08:27:35.595Z,13.32
2023-05-05T08:32:29.698Z,13.48
2023-05-05T08:37:21.718Z,13.38
2023-05-05T08:42:19.791Z,10.30
2023-05-05T08:47:21.306Z,12.05
2023-05-05T08:52:18.914Z,11.52
2023-05-05T08:57:11.057Z,10.63
2023-05-05T09:02:05.146Z,10.82
2023-05-05T09:07:00.908Z,10.30
2023-05-05T09:11:54.084Z,9.40
2023-05-05T09:16:45.891Z,8.57
2023-05-05T09:21:46.540Z,8.40
2023-05-05T09:26:43.757Z,9.55
2023-05-05T09:31:37.203Z,11.68
2023-05-05T09:36:44.365Z,12.18
2023-05-05T09:41:41.197Z,12.10
2023-05-05T09:46:33.469Z,11.65
2023-05-05T09:51:32.004Z,12.68
2023-05-05T09:56:38.143Z,9.52
2023-05-05T10:01:30.042Z,10.20
2023-05-05T10:06:39.675Z,9.00
2023-05-05T10:11:32.328Z,8.98
2023-05-05T10:16:24.976Z,9.10
2023-05-05T10:21:21.687Z,7.07
2023-05-05T10:26:14.896Z,9.02
2023-05-05T10:31:24.176Z,8.15
2023-05-05T10:36:17.986Z,8.85
2023-05-05T10:41:11.816Z,9.07
2023-05-05T10:46:04.249Z,8.32
2023-05-05T10:51:09.438Z,8.77
2023-05-05T10:56:30.476Z,8.30
2023-05-05T11:01:30.613Z,8.35
2023-05-05T11:06:22.684Z,7.95
2023-05-05T11:11:14.512Z,8.45
2023-05-05T11:16:27.165Z,8.93
2023-05-05T11:21:19.292Z,9.15
2023-05-05T11:26:12.423Z,9.05
2023-05-05T11:31:04.210Z,8.48
2023-05-05T11:36:08.063Z,7.32
2023-05-05T11:41:08.368Z,7.57
2023-05-05T11:46:16.997Z,7.90
2023-05-05T11:56:10.320Z,7.22
2023-05-05T12:01:08.528Z,6.22
2023-05-05T12:06:00.316Z,7.70
2023-05-05T12:10:52.129Z,6.95
2023-05-05T12:15:43.995Z,6.40
2023-05-05T12:20:36.810Z,6.38
2023-05-05T12:25:35.269Z,6.15
2023-05-05T12:30:27.120Z,6.57
2023-05-05T12:35:20.008Z,7.30
2023-05-05T12:40:45.085Z,6.00
2023-05-05T12:45:37.554Z,6.05
2023-05-05T12:50:31.042Z,6.53
2023-05-05T12:55:36.542Z,6.88
2023-05-05T13:00:29.402Z,6.32
2023-05-05T13:05:36.546Z,6.85
2023-05-05T13:10:28.653Z,7.03
2023-05-05T13:15:20.575Z,7.55
2023-05-05T13:20:12.526Z,7.05
2023-05-05T13:25:04.583Z,7.00
2023-05-05T13:29:56.334Z,6.40
2023-05-05T13:34:48.151Z,6.55
2023-05-05T13:39:40.017Z,6.95
2023-05-05T13:44:31.933Z,7.75
2023-05-05T13:49:24.005Z,7.47
2023-05-05T13:54:15.862Z,7.60
2023-05-05T13:59:07.785Z,8.23
2023-05-05T14:04:00.481Z,6.82
2023-05-05T14:08:54.000Z,6.63
2023-05-05T14:13:46.671Z,7.22
2023-05-05T14:18:38.509Z,7.00
2023-05-05T14:23:30.518Z,7.18
2023-05-05T14:28:22.388Z,7.68
2023-05-05T14:33:14.263Z,7.30
2023-05-05T14:38:06.161Z,7.13
2023-05-05T14:42:58.136Z,6.90
2023-05-05T14:47:50.155Z,7.00
2023-05-05T14:52:42.255Z,6.38
2023-05-05T14:57:34.072Z,6.57
2023-05-05T15:02:26.171Z,6.00
2023-05-05T15:07:18.019Z,7.15
2023-05-05T15:12:09.800Z,7.32
2023-05-05T15:17:01.559Z,7.35
2023-05-05T15:21:54.174Z,7.13
2023-05-05T15:26:45.997Z,6.15
2023-05-05T15:31:37.915Z,6.70
2023-05-05T15:36:29.760Z,6.82
2023-05-05T15:41:21.681Z,6.43
2023-05-05T15:46:13.605Z,6.50
2023-05-05T15:51:05.482Z,6.03
2023-05-05T15:55:57.355Z,6.90
2023-05-05T16:00:49.135Z,5.65
2023-05-05T16:05:41.994Z,6.25
2023-05-05T16:10:33.804Z,6.63
2023-05-05T16:15:25.570Z,6.35
2023-05-05T16:20:17.555Z,6.45
2023-05-05T16:25:09.770Z,5.63
2023-05-05T16:30:01.877Z,6.28
2023-05-05T16:34:53.696Z,5.90
2023-05-05T16:39:45.496Z,6.60
2023-05-05T16:44:37.589Z,6.18
2023-05-05T16:49:29.410Z,5.97
2023-05-05T16:54:21.263Z,6.20
2023-05-05T16:59:13.217Z,5.63
2023-05-05T17:04:05.149Z,7.28
2023-05-05T17:08:57.058Z,7.05
2023-05-05T17:13:48.894Z,6.22
2023-05-05T17:18:40.868Z,5.53
2023-05-05T17:23:32.935Z,5.40
2023-05-05T17:28:24.777Z,5.70
2023-05-05T17:33:20.945Z,5.75
2023-05-05T17:38:13.023Z,6.68
2023-05-05T17:43:04.919Z,5.75
2023-05-05T17:47:56.683Z,5.32
2023-05-05T17:52:48.567Z,5.93
2023-05-05T17:57:40.463Z,5.38
2023-05-05T18:02:32.424Z,5.10
2023-05-05T18:07:24.262Z,5.78
2023-05-05T18:12:17.553Z,4.70
2023-05-05T18:17:09.390Z,5.05
2023-05-05T18:22:01.759Z,5.07
2023-05-05T18:26:53.774Z,5.22
2023-05-05T18:31:48.804Z,5.10
2023-05-05T18:36:40.683Z,4.60
2023-05-05T18:41:32.995Z,5.60
2023-05-05T18:46:24.835Z,5.82
2023-05-05T18:51:17.040Z,4.82
2023-05-05T18:56:08.846Z,4.95
2023-05-05T19:01:00.690Z,5.68
2023-05-05T19:05:52.645Z,5.80
2023-05-05T19:10:44.471Z,6.57
2023-05-05T19:15:36.448Z,5.65
2023-05-05T19:20:31.037Z,6.75
2023-05-05T19:25:22.793Z,7.13
2023-05-05T19:30:14.796Z,7.55
2023-05-05T19:35:08.469Z,7.80
2023-05-05T19:40:00.389Z,7.35
2023-05-05T19:44:52.212Z,8.45
2023-05-05T19:49:43.968Z,12.05
2023-05-05T19:54:36.381Z,12.07
2023-05-05T19:59:28.306Z,14.60
2023-05-05T20:04:20.204Z,16.27
2023-05-05T20:09:12.090Z,17.05
2023-05-05T20:14:04.229Z,19.13
2023-05-05T20:18:56.080Z,20.45
2023-05-05T20:23:48.180Z,17.23
2023-05-05T20:28:43.303Z,16.40
2023-05-05T20:33:36.926Z,15.98
2023-05-05T20:38:28.795Z,15.10
2023-05-05T20:43:21.328Z,14.65
2023-05-05T20:48:13.175Z,13.30
2023-05-05T20:53:07.282Z,14.15
2023-05-05T20:57:59.105Z,14.93
2023-05-05T21:02:51.220Z,12.40
2023-05-05T21:07:43.074Z,13.15
2023-05-05T21:12:35.237Z,10.98
2023-05-05T21:17:27.626Z,9.05
2023-05-05T21:22:19.925Z,8.75
2023-05-05T21:27:12.172Z,7.78
2023-05-05T21:32:05.128Z,7.45
2023-05-05T21:36:57.421Z,6.63
2023-05-05T21:41:49.455Z,5.00
2023-05-05T21:46:41.604Z,4.43
2023-05-05T21:51:34.739Z,4.45
2023-05-05T21:56:26.566Z,4.57
2023-05-05T22:01:18.423Z,4.60
2023-05-05T22:06:10.404Z,4.40
2023-05-05T22:11:02.308Z,4.00
2023-05-05T22:15:54.113Z,4.53
2023-05-05T22:20:46.940Z,3.30
2023-05-05T22:25:38.863Z,4.00
2023-05-05T22:30:30.918Z,3.58
2023-05-05T22:35:22.703Z,3.13
2023-05-05T22:40:14.642Z,2.97
2023-05-05T22:45:07.225Z,3.53
2023-05-05T22:49:59.196Z,3.50
2023-05-05T22:54:51.079Z,3.95
2023-05-05T22:59:42.880Z,3.38
2023-05-05T23:04:34.704Z,3.00
2023-05-05T23:09:26.498Z,3.83
2023-05-05T23:14:19.636Z,3.05
2023-05-05T23:19:12.273Z,3.03
2023-05-05T23:24:04.271Z,3.47
2023-05-05T23:28:56.148Z,3.00
2023-05-05T23:33:48.315Z,2.63
2023-05-05T23:38:40.096Z,3.13
2023-05-05T23:43:31.880Z,3.53
2023-05-05T23:48:23.747Z,2.95
2023-05-05T23:53:16.140Z,3.45
2023-05-05T23:58:08.003Z,3.22
